Main page
METAR-TAF:

METAR-TAF

Airports :

Šiauliai International Airport

Šiauliai, Lithuania

latitude: 55-53-38N, longitude: 023-23-42E, elevation: 135 m

Current weather observation

The report was made 20 minutes ago, at 21:20 UTC
Wind 6 kt from the South/Southwest
Temperature 10°C
Humidity 87%
Pressure 1022 hPa
Visibility 10 km or more
no clouds below 1500 m and no cumulonimbus

METAR: EYSA 172120Z 21006KT CAVOK 10/08 Q1022 BLU NOSIG

Time: 00:40 (21:40 UTC)

Forecast

The report was made 1 hour and 37 minutes ago, at 20:03 UTC
Forecast valid from 17 at 21 UTC to 18 at 06 UTC
Wind 6 kt from the South
Visibility: 5000 m
mist
Temporary
from 17 at 21 UTC to 17 at 23 UTC
Visibility: 1500 m
Scattered clouds at a height of 500 ft
mist
Temporary
from 17 at 23 UTC to 18 at 06 UTC
Visibility: 0500 m
at a height of 200 ft
fog

TAF: EYSA 172003Z 1721/1806 19006KT 5000 BR TEMPO 1721/1723 1500 BR SCT005 TEMPO 1723/1806 0500 FG VV002

Weather observations and forecasts of more than 4000 airports (METAR and TAF reports).

The available stations are represented by yellow and red dots on the map.

Hover mouse over dot to see the name of the station.

Then click to see weather observations and forecasts.

To change the map : click on the green buttons with a black cross to zoom in, on the green button with a dash to zoom out, or on the green arrows for adjacent maps.


METAR-TAF: